Time,TemperatureF,DewpointF,PressureIn,WindDirection,WindDirectionDegrees,WindSpeedMPH,WindSpeedGustMPH,Humidity,HourlyPrecipIn,Conditions,Clouds,dailyrainin,SoftwareType,DateUTC
2013-03-07 00:00:00,39.1,35.3,30.06,West,275,15.0,17.0,86,0.00,,SCT,0.00,VWS V14.01,2013-03-07 08:00:00,
2013-03-07 00:05:00,39.1,35.3,30.06,SW,236,14.0,23.0,86,0.00,,SCT,0.00,VWS V14.01,2013-03-07 08:05:00,
2013-03-07 00:10:00,39.2,35.4,30.05,SSW,209,12.0,24.0,86,0.00,,SCT,0.00,VWS V14.01,2013-03-07 08:10:00,
2013-03-07 00:15:00,39.2,35.4,30.05,WSW,242,15.0,20.0,86,0.00,,SCT,0.00,VWS V14.01,2013-03-07 08:15:00,
2013-03-07 00:20:00,39.3,35.5,30.05,WSW,241,18.0,20.0,86,0.00,,SCT,0.00,VWS V14.01,2013-03-07 08:20:00,
2013-03-07 00:25:00,39.3,35.5,30.05,WSW,250,20.0,22.0,86,0.00,,SCT,0.00,VWS V14.01,2013-03-07 08:25:00,
2013-03-07 00:30:00,39.4,35.6,30.06,West,262,13.0,21.0,86,0.00,,SCT,0.00,VWS V14.01,2013-03-07 08:30:00,
2013-03-07 00:35:00,39.4,35.6,30.05,WSW,243,14.0,26.0,86,0.00,,SCT,0.00,VWS V14.01,2013-03-07 08:35:00,
2013-03-07 00:40:00,39.3,35.5,30.05,West,271,22.0,26.0,86,0.00,,SCT,0.00,VWS V14.01,2013-03-07 08:40:00,
2013-03-07 00:45:00,39.3,35.5,30.05,WSW,246,10.0,20.0,86,0.00,,SCT,0.00,VWS V14.01,2013-03-07 08:45:00,
2013-03-07 00:50:00,39.3,35.5,30.05,West,260,13.0,22.0,86,0.00,,SCT,0.00,VWS V14.01,2013-03-07 08:50:00,
2013-03-07 00:55:00,39.2,35.4,30.05,West,265,18.0,27.0,86,0.00,,SCT,0.00,VWS V14.01,2013-03-07 08:55:00,
2013-03-07 01:00:00,39.2,35.4,30.05,WSW,244,14.0,21.0,86,0.00,,SCT,0.00,VWS V14.01,2013-03-07 09:00:00,
2013-03-07 01:05:00,39.1,35.3,30.05,WSW,245,15.0,23.0,86,0.00,,SCT,0.00,VWS V14.01,2013-03-07 09:05:00,
2013-03-07 01:10:00,39.1,35.3,30.05,SW,220,12.0,23.0,86,0.00,,SCT,0.00,VWS V14.01,2013-03-07 09:10:00,
2013-03-07 01:16:00,39.1,35.3,30.05,SW,232,18.0,19.0,86,0.00,,SCT,0.00,VWS V14.01,2013-03-07 09:16:00,
2013-03-07 01:21:00,39.1,35.3,30.05,SW,236,12.0,25.0,86,0.00,,SCT,0.00,VWS V14.01,2013-03-07 09:21:00,
2013-03-07 01:26:00,39.1,35.3,30.05,WSW,242,13.0,25.0,86,0.00,,SCT,0.00,VWS V14.01,2013-03-07 09:26:00,
2013-03-07 01:31:00,39.2,35.4,30.05,WSW,239,16.0,18.0,86,0.00,,SCT,0.00,VWS V14.01,2013-03-07 09:31:00,
2013-03-07 01:36:00,39.3,35.5,30.05,WSW,257,13.0,22.0,86,0.00,,SCT,0.00,VWS V14.01,2013-03-07 09:36:00,
2013-03-07 01:41:00,39.3,35.5,30.05,WSW,246,20.0,22.0,86,0.00,,SCT,0.00,VWS V14.01,2013-03-07 09:41:00,
2013-03-07 01:46:00,39.4,35.6,30.04,WSW,237,17.0,19.0,86,0.00,,SCT,0.00,VWS V14.01,2013-03-07 09:46:00,
2013-03-07 01:51:00,39.4,35.6,30.04,WSW,253,14.0,22.0,86,0.00,,SCT,0.00,VWS V14.01,2013-03-07 09:51:00,
2013-03-07 01:56:00,39.4,35.6,30.04,SW,225,15.0,24.0,86,0.00,,SCT,0.00,VWS V14.01,2013-03-07 09:56:00,
2013-03-07 02:01:00,39.4,35.6,30.04,West,273,13.0,21.0,86,0.00,,SCT,0.00,VWS V14.01,2013-03-07 10:01:00,
2013-03-07 02:06:00,39.5,35.7,30.03,WSW,241,17.0,22.0,86,0.00,,SCT,0.00,VWS V14.01,2013-03-07 10:06:00,
2013-03-07 02:11:00,39.5,35.7,30.03,WSW,254,18.0,22.0,86,0.00,,SCT,0.00,VWS V14.01,2013-03-07 10:11:00,
2013-03-07 02:16:00,39.7,35.9,30.03,West,273,18.0,18.0,86,0.00,,SCT,0.00,VWS V14.01,2013-03-07 10:16:00,
2013-03-07 02:21:00,39.7,35.9,30.02,West,260,14.0,25.0,86,0.00,,SCT,0.00,VWS V14.01,2013-03-07 10:21:00,
2013-03-07 02:26:00,39.8,36.0,30.03,SW,223,17.0,25.0,86,0.00,,SCT,0.00,VWS V14.01,2013-03-07 10:26:00,
2013-03-07 02:31:00,39.9,36.1,30.02,WSW,237,13.0,19.0,86,0.00,,SCT,0.00,VWS V14.01,2013-03-07 10:31:00,
2013-03-07 02:36:00,39.9,36.1,30.02,West,265,13.0,24.0,86,0.00,,SCT,0.00,VWS V14.01,2013-03-07 10:36:00,
2013-03-07 02:41:00,40.0,36.2,30.02,WSW,249,12.0,25.0,86,0.00,,SCT,0.00,VWS V14.01,2013-03-07 10:41:00,
2013-03-07 02:46:00,40.1,36.3,30.02,West,265,23.0,23.0,86,0.00,,SCT,0.00,VWS V14.01,2013-03-07 10:46:00,
2013-03-07 02:51:00,40.1,36.3,30.03,SW,234,15.0,23.0,86,0.00,,SCT,0.00,VWS V14.01,2013-03-07 10:51:00,
2013-03-07 02:56:00,40.1,36.3,30.02,WSW,241,18.0,24.0,86,0.00,,SCT,0.00,VWS V14.01,2013-03-07 10:56:00,
2013-03-07 03:01:00,40.2,36.3,30.03,WSW,241,12.0,21.0,86,0.00,,SCT,0.00,VWS V14.01,2013-03-07 11:01:00,
2013-03-07 03:06:00,40.1,36.3,30.03,WSW,242,14.0,24.0,86,0.00,,SCT,0.00,VWS V14.01,2013-03-07 11:06:00,
2013-03-07 03:11:00,40.1,36.3,30.03,WSW,241,12.0,24.0,86,0.00,,SCT,0.00,VWS V14.01,2013-03-07 11:11:00,
2013-03-07 03:16:00,40.0,36.2,30.03,WSW,257,13.0,25.0,86,0.00,,SCT,0.00,VWS V14.01,2013-03-07 11:16:00,
2013-03-07 03:21:00,39.9,36.1,30.02,West,281,11.0,25.0,86,0.00,,SCT,0.00,VWS V14.01,2013-03-07 11:21:00,
2013-03-07 03:26:00,39.9,36.1,30.03,West,261,13.0,25.0,86,0.00,,SCT,0.00,VWS V14.01,2013-03-07 11:26:00,
2013-03-07 03:31:00,39.8,36.0,30.02,WSW,255,17.0,20.0,86,0.00,,SCT,0.00,VWS V14.01,2013-03-07 11:31:00,
2013-03-07 03:36:00,39.7,35.9,30.02,WSW,239,20.0,22.0,86,0.00,,SCT,0.00,VWS V14.01,2013-03-07 11:36:00,
2013-03-07 03:41:00,39.7,35.9,30.02,WSW,248,14.0,22.0,86,0.00,,SCT,0.00,VWS V14.01,2013-03-07 11:41:00,
2013-03-07 03:46:00,39.6,35.8,30.02,WSW,238,17.0,21.0,86,0.00,,SCT,0.00,VWS V14.01,2013-03-07 11:46:00,
2013-03-07 03:51:00,39.5,35.7,30.03,SW,222,11.0,21.0,86,0.00,,SCT,0.00,VWS V14.01,2013-03-07 11:51:00,
2013-03-07 03:56:00,39.4,35.6,30.03,NW,306,13.0,24.0,86,0.00,,SCT,0.00,VWS V14.01,2013-03-07 11:56:00,
2013-03-07 04:01:00,39.4,35.6,30.03,West,259,17.0,19.0,86,0.00,,SCT,0.00,VWS V14.01,2013-03-07 12:01:00,
2013-03-07 04:06:00,39.4,35.6,30.03,WNW,294,14.0,21.0,86,0.00,,SCT,0.00,VWS V14.01,2013-03-07 12:06:00,
2013-03-07 04:11:00,39.3,35.5,30.03,West,267,11.0,22.0,86,0.00,,SCT,0.00,VWS V14.01,2013-03-07 12:11:00,
2013-03-07 04:16:00,39.3,35.5,30.03,WSW,242,12.0,20.0,86,0.00,,SCT,0.00,VWS V14.01,2013-03-07 12:16:00,
2013-03-07 04:21:00,39.3,35.5,30.03,West,260,8.0,20.0,86,0.00,,SCT,0.00,VWS V14.01,2013-03-07 12:21:00,
2013-03-07 04:26:00,39.3,35.5,30.04,WSW,252,10.0,21.0,86,0.00,,SCT,0.00,VWS V14.01,2013-03-07 12:26:00,
2013-03-07 04:31:00,39.2,35.4,30.04,SW,235,14.0,18.0,86,0.00,,SCT,0.00,VWS V14.01,2013-03-07 12:31:00,
2013-03-07 04:37:00,39.2,35.4,30.03,SW,228,14.0,19.0,86,0.00,,SCT,0.00,VWS V14.01,2013-03-07 12:37:00,
2013-03-07 04:41:00,39.2,35.4,30.03,WSW,245,13.0,19.0,86,0.00,,SCT,0.00,VWS V14.01,2013-03-07 12:41:00,
2013-03-07 04:46:00,39.3,35.5,30.03,WSW,242,14.0,14.0,86,0.00,,SCT,0.00,VWS V14.01,2013-03-07 12:46:00,
2013-03-07 04:51:00,39.3,35.5,30.03,West,269,12.0,16.0,86,0.00,,SCT,0.00,VWS V14.01,2013-03-07 12:51:00,
2013-03-07 04:57:00,39.3,35.5,30.03,WSW,252,13.0,19.0,86,0.00,,SCT,0.00,VWS V14.01,2013-03-07 12:57:00,
2013-03-07 05:02:00,39.2,35.4,30.03,WSW,242,11.0,15.0,86,0.00,,SCT,0.00,VWS V14.01,2013-03-07 13:02:00,
2013-03-07 05:07:00,39.2,35.4,30.03,SW,226,10.0,19.0,86,0.00,,SCT,0.00,VWS V14.01,2013-03-07 13:07:00,
2013-03-07 05:12:00,39.2,35.4,30.03,WSW,254,10.0,19.0,86,0.00,,SCT,0.00,VWS V14.01,2013-03-07 13:12:00,
2013-03-07 05:17:00,39.2,35.4,30.04,West,264,10.0,12.0,86,0.00,,SCT,0.00,VWS V14.01,2013-03-07 13:17:00,
2013-03-07 05:22:00,39.3,35.5,30.03,WSW,248,11.0,14.0,86,0.00,,SCT,0.00,VWS V14.01,2013-03-07 13:22:00,
2013-03-07 05:27:00,39.4,35.6,30.03,West,277,9.0,18.0,86,0.00,,SCT,0.00,VWS V14.01,2013-03-07 13:27:00,
2013-03-07 05:32:00,39.6,35.8,30.04,SW,225,7.0,14.0,86,0.00,,SCT,0.00,VWS V14.01,2013-03-07 13:32:00,
2013-03-07 05:37:00,39.7,35.9,30.04,WSW,246,11.0,14.0,86,0.00,,SCT,0.00,VWS V14.01,2013-03-07 13:37:00,
2013-03-07 05:42:00,39.7,35.9,30.04,WSW,239,13.0,14.0,86,0.00,,SCT,0.00,VWS V14.01,2013-03-07 13:42:00,
2013-03-07 05:47:00,39.6,35.8,30.04,SW,232,6.0,11.0,86,0.00,,SCT,0.00,VWS V14.01,2013-03-07 13:47:00,
2013-03-07 05:52:00,39.7,35.9,30.04,WSW,246,8.0,12.0,86,0.00,,SCT,0.00,VWS V14.01,2013-03-07 13:52:00,
2013-03-07 05:57:00,39.7,35.9,30.05,SW,234,11.0,13.0,86,0.00,,SCT,0.00,VWS V14.01,2013-03-07 13:57:00,
2013-03-07 06:02:00,39.8,36.0,30.05,SW,234,8.0,13.0,86,0.00,,SCT,0.00,VWS V14.01,2013-03-07 14:02:00,
2013-03-07 06:07:00,40.0,36.2,30.05,SW,232,8.0,16.0,86,0.00,,SCT,0.00,VWS V14.01,2013-03-07 14:07:00,
2013-03-07 06:12:00,40.1,36.3,30.05,WSW,250,10.0,17.0,86,0.00,,SCT,0.00,VWS V14.01,2013-03-07 14:12:00,
2013-03-07 06:17:00,40.2,36.3,30.05,WSW,238,11.0,13.0,86,0.00,,SCT,0.00,VWS V14.01,2013-03-07 14:17:00,
2013-03-07 06:22:00,40.2,36.3,30.04,West,269,12.0,13.0,86,0.00,,SCT,0.00,VWS V14.01,2013-03-07 14:22:00,
2013-03-07 06:27:00,40.3,36.5,30.05,West,260,14.0,14.0,86,0.00,,SCT,0.00,VWS V14.01,2013-03-07 14:27:00,
2013-03-07 06:32:00,40.3,36.5,30.05,West,259,10.0,13.0,86,0.00,,SCT,0.00,VWS V14.01,2013-03-07 14:32:00,
2013-03-07 06:37:00,40.3,36.5,30.05,WSW,242,18.0,18.0,86,0.00,,SCT,0.00,VWS V14.01,2013-03-07 14:37:00,
2013-03-07 06:42:00,40.3,36.5,30.05,WSW,258,8.0,18.0,86,0.00,,SCT,0.00,VWS V14.01,2013-03-07 14:42:00,
2013-03-07 06:47:00,40.3,36.5,30.05,SW,236,10.0,13.0,86,0.00,,SCT,0.00,VWS V14.01,2013-03-07 14:47:00,
2013-03-07 06:52:00,40.4,36.5,30.05,WSW,244,10.0,14.0,86,0.00,,SCT,0.00,VWS V14.01,2013-03-07 14:52:00,
2013-03-07 06:57:00,40.5,36.7,30.05,SW,235,11.0,17.0,86,0.00,,SCT,0.00,VWS V14.01,2013-03-07 14:57:00,
2013-03-07 07:02:00,40.5,36.7,30.05,SW,234,8.0,15.0,86,0.00,,SCT,0.00,VWS V14.01,2013-03-07 15:02:00,
2013-03-07 07:07:00,40.6,36.8,30.05,SW,236,8.0,17.0,86,0.00,,SCT,0.00,VWS V14.01,2013-03-07 15:07:00,
2013-03-07 07:12:00,40.7,36.8,30.05,WSW,238,7.0,17.0,86,0.00,,SCT,0.00,VWS V14.01,2013-03-07 15:12:00,
2013-03-07 07:17:00,40.7,36.8,30.05,SW,216,10.0,15.0,86,0.00,,SCT,0.00,VWS V14.01,2013-03-07 15:17:00,
2013-03-07 07:22:00,40.7,36.8,30.05,WSW,242,10.0,16.0,86,0.00,,SCT,0.00,VWS V14.01,2013-03-07 15:22:00,
2013-03-07 07:27:00,40.8,36.9,30.05,SW,233,7.0,17.0,86,0.00,,SCT,0.00,VWS V14.01,2013-03-07 15:27:00,
2013-03-07 07:32:00,40.9,37.0,30.05,SW,233,8.0,15.0,86,0.00,,SCT,0.00,VWS V14.01,2013-03-07 15:32:00,
2013-03-07 07:37:00,41.0,37.1,30.06,WSW,240,8.0,15.0,86,0.00,,SCT,0.00,VWS V14.01,2013-03-07 15:37:00,
2013-03-07 07:42:00,41.0,37.1,30.05,WSW,252,6.0,15.0,86,0.00,,SCT,0.00,VWS V14.01,2013-03-07 15:42:00,
2013-03-07 07:47:00,41.1,37.2,30.05,WSW,244,11.0,14.0,86,0.00,,SCT,0.00,VWS V14.01,2013-03-07 15:47:00,
2013-03-07 07:52:00,41.1,37.2,30.06,WSW,243,12.0,18.0,86,0.00,,SCT,0.00,VWS V14.01,2013-03-07 15:52:00,
2013-03-07 07:57:00,41.3,37.4,30.05,WSW,240,6.0,18.0,86,0.00,,SCT,0.00,VWS V14.01,2013-03-07 15:57:00,
2013-03-07 08:02:00,41.4,37.5,30.06,WSW,244,11.0,15.0,86,0.00,,SCT,0.00,VWS V14.01,2013-03-07 16:02:00,
2013-03-07 08:07:00,41.5,37.6,30.06,WSW,251,8.0,18.0,86,0.00,,SCT,0.00,VWS V14.01,2013-03-07 16:07:00,
2013-03-07 08:12:00,41.5,37.6,30.06,West,268,11.0,18.0,86,0.00,,SCT,0.00,VWS V14.01,2013-03-07 16:12:00,
2013-03-07 08:17:00,41.6,37.7,30.06,WSW,246,7.0,15.0,86,0.00,,SCT,0.00,VWS V14.01,2013-03-07 16:17:00,
2013-03-07 08:22:00,41.7,37.8,30.06,WSW,239,10.0,17.0,86,0.00,,SCT,0.00,VWS V14.01,2013-03-07 16:22:00,
2013-03-07 08:27:00,41.9,38.0,30.06,WSW,246,11.0,18.0,86,0.00,,SCT,0.00,VWS V14.01,2013-03-07 16:27:00,
2013-03-07 08:32:00,42.0,38.1,30.06,WSW,237,7.0,18.0,86,0.00,,SCT,0.00,VWS V14.01,2013-03-07 16:32:00,
2013-03-07 08:37:00,42.2,38.3,30.06,WSW,244,14.0,18.0,86,0.00,,SCT,0.00,VWS V14.01,2013-03-07 16:37:00,
2013-03-07 08:42:00,42.2,38.0,30.06,SW,230,10.0,18.0,85,0.00,,SCT,0.00,VWS V14.01,2013-03-07 16:42:00,
2013-03-07 08:47:00,42.2,38.3,30.06,WSW,240,11.0,16.0,86,0.00,,SCT,0.00,VWS V14.01,2013-03-07 16:47:00,
2013-03-07 08:52:00,42.3,38.4,30.06,SW,221,13.0,16.0,86,0.00,,SCT,0.00,VWS V14.01,2013-03-07 16:52:00,
2013-03-07 08:57:00,42.4,38.5,30.05,WSW,241,11.0,21.0,86,0.00,,SCT,0.00,VWS V14.01,2013-03-07 16:57:00,
2013-03-07 09:02:00,42.5,38.6,30.06,WSW,237,15.0,18.0,86,0.01,,SCT,0.01,VWS V14.01,2013-03-07 17:02:00,
2013-03-07 09:07:00,42.5,38.6,30.06,SW,227,13.0,20.0,86,0.01,,SCT,0.01,VWS V14.01,2013-03-07 17:07:00,
2013-03-07 09:12:00,42.6,38.7,30.06,WSW,249,10.0,20.0,86,0.01,,SCT,0.01,VWS V14.01,2013-03-07 17:12:00,
2013-03-07 09:17:00,42.5,38.6,30.05,WSW,243,8.0,19.0,86,0.01,,SCT,0.01,VWS V14.01,2013-03-07 17:17:00,
2013-03-07 09:22:00,42.5,38.6,30.05,South,189,9.0,21.0,86,0.01,,SCT,0.01,VWS V14.01,2013-03-07 17:22:00,
2013-03-07 09:27:00,42.5,38.6,30.06,WSW,241,17.0,22.0,86,0.01,,SCT,0.01,VWS V14.01,2013-03-07 17:27:00,
2013-03-07 09:32:00,42.4,38.5,30.06,SW,228,19.0,19.0,86,0.01,,SCT,0.01,VWS V14.01,2013-03-07 17:32:00,
2013-03-07 09:37:00,42.4,38.5,30.06,WNW,286,9.0,19.0,86,0.01,,SCT,0.01,VWS V14.01,2013-03-07 17:37:00,
2013-03-07 09:42:00,42.5,38.6,30.06,SW,235,11.0,23.0,86,0.01,,SCT,0.01,VWS V14.01,2013-03-07 17:42:00,
2013-03-07 09:47:00,42.6,38.4,30.06,SW,229,15.0,17.0,85,0.01,,SCT,0.01,VWS V14.01,2013-03-07 17:47:00,
2013-03-07 09:52:00,42.6,38.7,30.06,WSW,240,13.0,18.0,86,0.01,,SCT,0.01,VWS V14.01,2013-03-07 17:52:00,
2013-03-07 09:57:00,42.7,38.8,30.06,SW,229,16.0,22.0,86,0.01,,SCT,0.01,VWS V14.01,2013-03-07 17:57:00,
2013-03-07 10:02:00,42.7,38.8,30.06,SW,234,11.0,15.0,86,0.00,,SCT,0.01,VWS V14.01,2013-03-07 18:02:00,
2013-03-07 10:07:00,43.0,39.1,30.06,SW,229,10.0,21.0,86,0.00,,SCT,0.01,VWS V14.01,2013-03-07 18:07:00,
2013-03-07 10:12:00,43.3,39.4,30.06,SW,229,17.0,21.0,86,0.00,,SCT,0.01,VWS V14.01,2013-03-07 18:12:00,
2013-03-07 10:17:00,43.5,39.6,30.06,West,275,14.0,19.0,86,0.00,,SCT,0.01,VWS V14.01,2013-03-07 18:17:00,
2013-03-07 10:22:00,43.4,39.5,30.06,SW,228,16.0,20.0,86,0.00,,SCT,0.01,VWS V14.01,2013-03-07 18:22:00,
2013-03-07 10:27:00,43.2,39.3,30.06,SW,221,16.0,21.0,86,0.00,,SCT,0.01,VWS V14.01,2013-03-07 18:27:00,
2013-03-07 10:32:00,43.1,39.2,30.06,WSW,237,12.0,17.0,86,0.01,,SCT,0.02,VWS V14.01,2013-03-07 18:32:00,
2013-03-07 10:37:00,43.0,39.1,30.06,WSW,244,15.0,20.0,86,0.01,,SCT,0.02,VWS V14.01,2013-03-07 18:37:00,
2013-03-07 10:42:00,43.1,39.2,30.06,West,262,11.0,21.0,86,0.01,,SCT,0.02,VWS V14.01,2013-03-07 18:42:00,
2013-03-07 10:47:00,43.0,39.1,30.06,WSW,250,17.0,23.0,86,0.01,,SCT,0.02,VWS V14.01,2013-03-07 18:47:00,
2013-03-07 10:52:00,43.2,39.3,30.06,WSW,239,13.0,23.0,86,0.01,,SCT,0.02,VWS V14.01,2013-03-07 18:52:00,
2013-03-07 10:57:00,43.7,39.8,30.06,SSW,212,14.0,23.0,86,0.01,,SCT,0.02,VWS V14.01,2013-03-07 18:57:00,
2013-03-07 11:02:00,44.1,40.5,30.06,WSW,248,13.0,19.0,87,0.01,,SCT,0.02,VWS V14.01,2013-03-07 19:02:00,
2013-03-07 11:07:00,43.9,40.0,30.06,SSW,200,11.0,24.0,86,0.01,,SCT,0.02,VWS V14.01,2013-03-07 19:07:00,
2013-03-07 11:12:00,43.7,39.8,30.06,SW,232,16.0,24.0,86,0.01,,SCT,0.02,VWS V14.01,2013-03-07 19:12:00,
2013-03-07 11:17:00,43.5,39.6,30.05,WSW,244,8.0,15.0,86,0.01,,SCT,0.02,VWS V14.01,2013-03-07 19:17:00,
2013-03-07 11:22:00,43.1,39.2,30.05,WSW,249,13.0,21.0,86,0.01,,SCT,0.02,VWS V14.01,2013-03-07 19:22:00,
2013-03-07 11:27:00,42.8,38.9,30.06,WSW,245,20.0,21.0,86,0.01,,SCT,0.02,VWS V14.01,2013-03-07 19:27:00,
2013-03-07 11:32:00,42.4,38.8,30.05,SW,217,10.0,22.0,87,0.01,,SCT,0.02,VWS V14.01,2013-03-07 19:32:00,
2013-03-07 11:37:00,41.9,38.3,30.05,WSW,239,18.0,31.0,87,0.01,,SCT,0.02,VWS V14.01,2013-03-07 19:37:00,
2013-03-07 11:42:00,41.4,38.1,30.05,SW,234,16.0,31.0,88,0.01,,SCT,0.02,VWS V14.01,2013-03-07 19:42:00,
2013-03-07 11:47:00,41.1,37.5,30.05,WSW,240,14.0,22.0,87,0.00,,SCT,0.02,VWS V14.01,2013-03-07 19:47:00,
2013-03-07 11:52:00,41.1,37.2,30.04,SW,228,8.0,22.0,86,0.00,,SCT,0.02,VWS V14.01,2013-03-07 19:52:00,
2013-03-07 11:57:00,41.1,37.2,30.04,WSW,238,12.0,22.0,86,0.00,,SCT,0.02,VWS V14.01,2013-03-07 19:57:00,
2013-03-07 12:02:00,41.0,37.1,30.04,SW,236,18.0,19.0,86,0.00,,SCT,0.02,VWS V14.01,2013-03-07 20:02:00,
2013-03-07 12:07:00,40.9,37.3,30.04,SW,231,12.0,23.0,87,0.00,,SCT,0.02,VWS V14.01,2013-03-07 20:07:00,
2013-03-07 12:12:00,40.6,37.0,30.04,SW,223,16.0,25.0,87,0.00,,SCT,0.02,VWS V14.01,2013-03-07 20:12:00,
2013-03-07 12:17:00,40.4,36.8,30.03,WSW,244,22.0,28.0,87,0.00,,SCT,0.02,VWS V14.01,2013-03-07 20:17:00,
2013-03-07 12:22:00,40.4,36.8,30.03,WSW,248,20.0,28.0,87,0.00,,SCT,0.02,VWS V14.01,2013-03-07 20:22:00,
2013-03-07 12:27:00,40.9,37.0,30.03,SW,224,13.0,28.0,86,0.00,,SCT,0.02,VWS V14.01,2013-03-07 20:27:00,
2013-03-07 12:32:00,41.1,37.5,30.02,SW,232,12.0,22.0,87,0.00,,SCT,0.02,VWS V14.01,2013-03-07 20:32:00,
2013-03-07 12:37:00,41.2,37.6,30.02,SW,230,14.0,24.0,87,0.00,,SCT,0.02,VWS V14.01,2013-03-07 20:37:00,
2013-03-07 12:42:00,41.4,37.8,30.02,SW,232,13.0,25.0,87,0.00,,SCT,0.02,VWS V14.01,2013-03-07 20:42:00,
2013-03-07 12:47:00,41.9,38.0,30.01,SW,228,18.0,21.0,86,0.00,,SCT,0.02,VWS V14.01,2013-03-07 20:47:00,
2013-03-07 12:52:00,42.6,39.0,30.01,SW,221,20.0,27.0,87,0.00,,SCT,0.02,VWS V14.01,2013-03-07 20:52:00,
2013-03-07 12:57:00,42.9,39.3,30.01,SW,221,12.0,27.0,87,0.00,,SCT,0.02,VWS V14.01,2013-03-07 20:57:00,
2013-03-07 13:02:00,42.7,39.4,30.01,SW,230,11.0,22.0,88,0.00,,SCT,0.02,VWS V14.01,2013-03-07 21:02:00,
2013-03-07 13:07:00,42.7,39.1,30.00,WSW,246,11.0,27.0,87,0.00,,SCT,0.02,VWS V14.01,2013-03-07 21:07:00,
2013-03-07 13:12:00,42.9,39.6,30.01,SW,217,12.0,27.0,88,0.00,,SCT,0.02,VWS V14.01,2013-03-07 21:12:00,
2013-03-07 13:17:00,42.7,38.8,30.01,SW,221,19.0,21.0,86,0.00,,SCT,0.02,VWS V14.01,2013-03-07 21:17:00,
2013-03-07 13:22:00,42.5,38.6,30.01,SW,228,18.0,26.0,86,0.00,,SCT,0.02,VWS V14.01,2013-03-07 21:22:00,
2013-03-07 13:27:00,42.5,38.9,30.01,WSW,240,18.0,27.0,87,0.00,,SCT,0.02,VWS V14.01,2013-03-07 21:27:00,
2013-03-07 13:32:00,42.5,38.9,30.01,SW,217,14.0,27.0,87,0.00,,SCT,0.02,VWS V14.01,2013-03-07 21:32:00,
2013-03-07 13:38:00,42.6,39.3,30.01,SW,231,18.0,27.0,88,0.00,,SCT,0.02,VWS V14.01,2013-03-07 21:38:00,
2013-03-07 13:43:00,42.3,38.4,30.01,SW,236,14.0,29.0,86,0.00,,SCT,0.02,VWS V14.01,2013-03-07 21:43:00,
2013-03-07 13:48:00,42.0,38.4,30.01,WSW,242,14.0,20.0,87,0.00,,SCT,0.02,VWS V14.01,2013-03-07 21:48:00,
2013-03-07 13:53:00,41.8,38.2,30.01,SW,217,17.0,23.0,87,0.00,,SCT,0.02,VWS V14.01,2013-03-07 21:53:00,
2013-03-07 13:58:00,41.7,38.1,30.01,SW,227,16.0,31.0,87,0.00,,SCT,0.02,VWS V14.01,2013-03-07 21:58:00,
2013-03-07 14:03:00,41.8,37.9,30.01,WSW,241,15.0,24.0,86,0.00,,SCT,0.02,VWS V14.01,2013-03-07 22:03:00,
2013-03-07 14:08:00,41.8,37.9,30.00,SW,229,17.0,24.0,86,0.00,,SCT,0.02,VWS V14.01,2013-03-07 22:08:00,
2013-03-07 14:13:00,41.6,37.7,30.00,SW,229,10.0,24.0,86,0.00,,SCT,0.02,VWS V14.01,2013-03-07 22:13:00,
2013-03-07 14:18:00,41.7,38.1,30.00,WSW,252,10.0,17.0,87,0.00,,SCT,0.02,VWS V14.01,2013-03-07 22:18:00,
2013-03-07 14:23:00,41.5,37.9,30.00,SW,219,16.0,23.0,87,0.00,,SCT,0.02,VWS V14.01,2013-03-07 22:23:00,
2013-03-07 14:28:00,41.3,37.4,30.00,SW,217,13.0,23.0,86,0.00,,SCT,0.02,VWS V14.01,2013-03-07 22:28:00,
2013-03-07 14:33:00,41.2,37.3,30.00,SW,217,19.0,24.0,86,0.00,,SCT,0.02,VWS V14.01,2013-03-07 22:33:00,
2013-03-07 14:38:00,40.8,36.3,30.00,SW,234,26.0,30.0,84,0.00,,SCT,0.02,VWS V14.01,2013-03-07 22:38:00,
2013-03-07 14:43:00,40.6,36.2,30.00,WSW,254,13.0,30.0,84,0.00,,SCT,0.02,VWS V14.01,2013-03-07 22:43:00,
2013-03-07 14:48:00,40.5,36.3,30.00,SW,226,16.0,21.0,85,0.00,,SCT,0.02,VWS V14.01,2013-03-07 22:48:00,
2013-03-07 14:53:00,40.5,36.0,30.00,SW,234,19.0,32.0,84,0.00,,SCT,0.02,VWS V14.01,2013-03-07 22:53:00,
2013-03-07 14:58:00,40.6,36.2,30.00,SSW,211,17.0,32.0,84,0.00,,SCT,0.02,VWS V14.01,2013-03-07 22:58:00,
2013-03-07 15:03:00,40.7,36.0,30.00,West,261,14.0,31.0,83,0.00,,SCT,0.02,VWS V14.01,2013-03-07 23:03:00,
2013-03-07 15:08:00,40.6,35.5,30.00,SSW,213,25.0,33.0,82,0.00,,SCT,0.02,VWS V14.01,2013-03-07 23:08:00,
2013-03-07 15:13:00,40.7,35.6,29.99,WSW,252,27.0,33.0,82,0.00,,SCT,0.02,VWS V14.01,2013-03-07 23:13:00,
2013-03-07 15:18:00,40.7,35.3,29.99,SW,236,21.0,25.0,81,0.00,,SCT,0.02,VWS V14.01,2013-03-07 23:18:00,
2013-03-07 15:23:00,40.7,35.3,29.99,SW,235,21.0,26.0,81,0.00,,SCT,0.02,VWS V14.01,2013-03-07 23:23:00,
2013-03-07 15:28:00,40.5,34.5,29.99,WSW,237,17.0,29.0,79,0.00,,SCT,0.02,VWS V14.01,2013-03-07 23:28:00,
2013-03-07 15:33:00,40.2,34.5,29.99,SW,220,21.0,25.0,80,0.00,,SCT,0.02,VWS V14.01,2013-03-07 23:33:00,
2013-03-07 15:38:00,40.1,34.8,29.99,WSW,246,13.0,25.0,81,0.00,,SCT,0.02,VWS V14.01,2013-03-07 23:38:00,
2013-03-07 15:43:00,40.2,35.2,29.99,SSW,208,11.0,25.0,82,0.00,,SCT,0.02,VWS V14.01,2013-03-07 23:43:00,
2013-03-07 15:48:00,40.2,35.2,29.99,WSW,244,22.0,31.0,82,0.00,,SCT,0.02,VWS V14.01,2013-03-07 23:48:00,
2013-03-07 15:53:00,40.3,35.6,30.00,WSW,242,19.0,31.0,83,0.00,,SCT,0.02,VWS V14.01,2013-03-07 23:53:00,
2013-03-07 15:58:00,40.4,36.0,29.99,WSW,250,21.0,31.0,84,0.00,,SCT,0.02,VWS V14.01,2013-03-07 23:58:00,
2013-03-07 16:03:00,40.3,35.9,29.99,WSW,239,11.0,24.0,84,0.00,,SCT,0.02,VWS V14.01,2013-03-08 00:03:00,
2013-03-07 16:08:00,40.3,36.2,29.99,West,259,18.0,28.0,85,0.00,,SCT,0.02,VWS V14.01,2013-03-08 00:08:00,
2013-03-07 16:13:00,40.2,36.3,30.00,WSW,238,19.0,28.0,86,0.00,,SCT,0.02,VWS V14.01,2013-03-08 00:13:00,
2013-03-07 16:18:00,39.9,35.8,29.99,SW,234,13.0,25.0,85,0.00,,SCT,0.02,VWS V14.01,2013-03-08 00:18:00,
2013-03-07 16:23:00,39.7,35.9,30.00,WSW,250,33.0,33.0,86,0.00,,SCT,0.02,VWS V14.01,2013-03-08 00:23:00,
2013-03-07 16:28:00,39.6,35.8,29.99,SW,224,14.0,33.0,86,0.00,,SCT,0.02,VWS V14.01,2013-03-08 00:28:00,
2013-03-07 16:33:00,39.4,35.6,29.99,WSW,241,21.0,24.0,86,0.00,,SCT,0.02,VWS V14.01,2013-03-08 00:33:00,
2013-03-07 16:38:00,39.3,35.5,29.99,WSW,249,19.0,29.0,86,0.00,,SCT,0.02,VWS V14.01,2013-03-08 00:38:00,
2013-03-07 16:43:00,39.1,35.0,29.99,SW,236,13.0,29.0,85,0.00,,SCT,0.02,VWS V14.01,2013-03-08 00:43:00,
2013-03-07 16:48:00,39.1,35.3,29.99,WSW,240,15.0,23.0,86,0.00,,SCT,0.02,VWS V14.01,2013-03-08 00:48:00,
2013-03-07 16:53:00,39.1,35.6,29.99,SW,229,16.0,25.0,87,0.00,,SCT,0.02,VWS V14.01,2013-03-08 00:53:00,
2013-03-07 16:58:00,39.0,35.5,29.99,WSW,238,14.0,25.0,87,0.00,,SCT,0.02,VWS V14.01,2013-03-08 00:58:00,
2013-03-07 17:03:00,38.7,34.6,29.99,SW,219,16.0,25.0,85,0.00,,SCT,0.02,VWS V14.01,2013-03-08 01:03:00,
2013-03-07 17:08:00,38.6,34.8,29.99,SW,227,22.0,25.0,86,0.00,,SCT,0.02,VWS V14.01,2013-03-08 01:08:00,
2013-03-07 17:13:00,38.4,34.6,30.00,WSW,252,15.0,27.0,86,0.00,,SCT,0.02,VWS V14.01,2013-03-08 01:13:00,
2013-03-07 17:18:00,38.3,34.8,30.00,SW,234,19.0,22.0,87,0.00,,SCT,0.02,VWS V14.01,2013-03-08 01:18:00,
2013-03-07 17:23:00,38.1,34.3,30.00,WSW,241,21.0,27.0,86,0.00,,SCT,0.02,VWS V14.01,2013-03-08 01:23:00,
2013-03-07 17:28:00,37.9,34.1,30.00,SW,233,16.0,28.0,86,0.00,,SCT,0.02,VWS V14.01,2013-03-08 01:28:00,
2013-03-07 17:33:00,37.8,34.0,30.00,SW,229,17.0,24.0,86,0.00,,SCT,0.02,VWS V14.01,2013-03-08 01:33:00,
2013-03-07 17:38:00,37.7,33.9,30.00,SW,215,16.0,24.0,86,0.00,,SCT,0.02,VWS V14.01,2013-03-08 01:38:00,
2013-03-07 17:43:00,37.6,34.1,30.00,West,271,15.0,27.0,87,0.00,,SCT,0.02,VWS V14.01,2013-03-08 01:43:00,
2013-03-07 17:48:00,37.6,34.1,30.00,WSW,240,22.0,24.0,87,0.00,,SCT,0.02,VWS V14.01,2013-03-08 01:48:00,
2013-03-07 17:53:00,37.5,34.0,30.00,WSW,249,10.0,28.0,87,0.00,,SCT,0.02,VWS V14.01,2013-03-08 01:53:00,
2013-03-07 17:58:00,37.5,34.0,30.00,WSW,257,13.0,28.0,87,0.00,,SCT,0.02,VWS V14.01,2013-03-08 01:58:00,
2013-03-07 18:03:00,37.4,33.9,30.00,West,265,19.0,30.0,87,0.00,,SCT,0.02,VWS V14.01,2013-03-08 02:03:00,
2013-03-07 18:08:00,37.5,34.0,30.00,WSW,254,12.0,30.0,87,0.00,,SCT,0.02,VWS V14.01,2013-03-08 02:08:00,
2013-03-07 18:13:00,37.5,34.0,30.00,WSW,247,13.0,30.0,87,0.00,,SCT,0.02,VWS V14.01,2013-03-08 02:13:00,
2013-03-07 18:18:00,37.5,34.3,29.99,WSW,252,17.0,22.0,88,0.00,,SCT,0.02,VWS V14.01,2013-03-08 02:18:00,
2013-03-07 18:23:00,37.5,34.3,29.99,WSW,257,15.0,28.0,88,0.00,,SCT,0.02,VWS V14.01,2013-03-08 02:23:00,
2013-03-07 18:28:00,37.6,34.4,30.00,WSW,248,15.0,28.0,88,0.00,,SCT,0.02,VWS V14.01,2013-03-08 02:28:00,
2013-03-07 18:33:00,37.6,34.4,30.00,WSW,255,12.0,25.0,88,0.00,,SCT,0.02,VWS V14.01,2013-03-08 02:33:00,
2013-03-07 18:38:00,37.7,34.5,30.00,SW,232,18.0,26.0,88,0.00,,SCT,0.02,VWS V14.01,2013-03-08 02:38:00,
2013-03-07 18:43:00,37.7,34.5,29.99,WSW,249,13.0,26.0,88,0.00,,SCT,0.02,VWS V14.01,2013-03-08 02:43:00,
2013-03-07 18:48:00,37.6,34.4,29.99,West,263,10.0,28.0,88,0.00,,SCT,0.02,VWS V14.01,2013-03-08 02:48:00,
2013-03-07 18:53:00,37.5,34.3,29.99,SW,227,15.0,28.0,88,0.00,,SCT,0.02,VWS V14.01,2013-03-08 02:53:00,
2013-03-07 18:58:00,37.3,34.1,30.00,West,265,11.0,28.0,88,0.00,,SCT,0.02,VWS V14.01,2013-03-08 02:58:00,
2013-03-07 19:03:00,37.2,34.0,30.00,SW,225,14.0,20.0,88,0.00,,SCT,0.02,VWS V14.01,2013-03-08 03:03:00,
2013-03-07 19:08:00,37.1,33.9,30.00,WSW,258,11.0,20.0,88,0.00,,SCT,0.02,VWS V14.01,2013-03-08 03:08:00,
2013-03-07 19:13:00,37.0,33.8,30.00,West,259,8.0,21.0,88,0.00,,SCT,0.02,VWS V14.01,2013-03-08 03:13:00,
2013-03-07 19:18:00,37.0,33.8,30.00,SW,236,8.0,17.0,88,0.00,,SCT,0.02,VWS V14.01,2013-03-08 03:18:00,
2013-03-07 19:23:00,37.0,33.8,30.00,WNW,294,12.0,19.0,88,0.00,,SCT,0.02,VWS V14.01,2013-03-08 03:23:00,
2013-03-07 19:28:00,37.0,33.8,30.00,WSW,248,11.0,19.0,88,0.00,,SCT,0.02,VWS V14.01,2013-03-08 03:28:00,
2013-03-07 19:33:00,37.0,33.8,29.99,SW,235,15.0,16.0,88,0.00,,SCT,0.02,VWS V14.01,2013-03-08 03:33:00,
2013-03-07 19:38:00,36.9,33.7,29.99,WSW,241,19.0,19.0,88,0.00,,SCT,0.02,VWS V14.01,2013-03-08 03:38:00,
2013-03-07 19:43:00,36.8,33.6,29.99,SW,231,7.0,19.0,88,0.00,,SCT,0.02,VWS V14.01,2013-03-08 03:43:00,
2013-03-07 19:48:00,36.8,33.6,29.99,West,260,8.0,14.0,88,0.00,,SCT,0.02,VWS V14.01,2013-03-08 03:48:00,
2013-03-07 19:53:00,36.6,33.4,29.99,West,269,10.0,17.0,88,0.00,,SCT,0.02,VWS V14.01,2013-03-08 03:53:00,
2013-03-07 19:58:00,36.6,33.4,29.98,SW,225,15.0,18.0,88,0.00,,SCT,0.02,VWS V14.01,2013-03-08 03:58:00,
2013-03-07 20:03:00,36.3,32.8,29.98,WSW,258,14.0,17.0,87,0.00,,SCT,0.02,VWS V14.01,2013-03-08 04:03:00,
2013-03-07 20:08:00,36.1,32.3,29.99,SW,236,13.0,17.0,86,0.00,,SCT,0.02,VWS V14.01,2013-03-08 04:08:00,
2013-03-07 20:13:00,35.9,32.1,29.99,WSW,248,8.0,17.0,86,0.00,,SCT,0.02,VWS V14.01,2013-03-08 04:13:00,
2013-03-07 20:18:00,35.8,32.0,29.99,SW,231,12.0,16.0,86,0.00,,SCT,0.02,VWS V14.01,2013-03-08 04:18:00,
2013-03-07 20:23:00,35.7,31.9,29.99,SW,227,13.0,21.0,86,0.00,,SCT,0.02,VWS V14.01,2013-03-08 04:23:00,
2013-03-07 20:28:00,35.7,31.6,29.99,WSW,246,14.0,21.0,85,0.00,,SCT,0.02,VWS V14.01,2013-03-08 04:28:00,
2013-03-07 20:33:00,35.7,31.6,29.99,SW,231,20.0,20.0,85,0.00,,SCT,0.02,VWS V14.01,2013-03-08 04:33:00,
2013-03-07 20:38:00,35.7,31.6,29.99,WSW,245,14.0,20.0,85,0.00,,SCT,0.02,VWS V14.01,2013-03-08 04:38:00,
2013-03-07 20:43:00,35.8,31.7,30.00,SW,228,11.0,20.0,85,0.00,,SCT,0.02,VWS V14.01,2013-03-08 04:43:00,
2013-03-07 20:48:00,35.8,31.7,30.00,WSW,241,10.0,20.0,85,0.00,,SCT,0.02,VWS V14.01,2013-03-08 04:48:00,
2013-03-07 20:53:00,35.8,31.7,30.00,WSW,244,8.0,20.0,85,0.00,,SCT,0.02,VWS V14.01,2013-03-08 04:53:00,
2013-03-07 20:58:00,35.8,31.7,30.00,WSW,241,10.0,20.0,85,0.00,,SCT,0.02,VWS V14.01,2013-03-08 04:58:00,
2013-03-07 21:00:00,35.7,31.6,30.00,WSW,254,5.0,20.0,85,0.00,,SCT,0.02,VWS V14.01,2013-03-08 05:00:00,
2013-03-07 21:02:00,35.7,31.6,30.00,WSW,240,7.0,13.0,85,0.00,,SCT,0.02,VWS V14.01,2013-03-08 05:02:00,
2013-03-07 21:07:00,35.7,31.6,30.00,SW,217,10.0,17.0,85,0.00,,SCT,0.02,VWS V14.01,2013-03-08 05:07:00,
2013-03-07 21:12:00,35.7,31.9,29.99,SW,232,11.0,17.0,86,0.00,,SCT,0.02,VWS V14.01,2013-03-08 05:12:00,
2013-03-07 21:17:00,35.7,31.9,29.99,WSW,254,7.0,14.0,86,0.00,,SCT,0.02,VWS V14.01,2013-03-08 05:17:00,
2013-03-07 21:22:00,35.7,31.9,30.00,WSW,257,10.0,15.0,86,0.00,,SCT,0.02,VWS V14.01,2013-03-08 05:22:00,
2013-03-07 21:27:00,35.7,31.9,29.99,SW,222,12.0,15.0,86,0.00,,SCT,0.02,VWS V14.01,2013-03-08 05:27:00,
2013-03-07 21:32:00,35.7,31.9,29.99,SW,216,9.0,10.0,86,0.00,,SCT,0.02,VWS V14.01,2013-03-08 05:32:00,
2013-03-07 21:37:00,35.8,32.0,29.99,WSW,237,7.0,18.0,86,0.00,,SCT,0.02,VWS V14.01,2013-03-08 05:37:00,
2013-03-07 21:42:00,35.9,32.1,29.99,WSW,255,7.0,18.0,86,0.00,,SCT,0.02,VWS V14.01,2013-03-08 05:42:00,
2013-03-07 21:47:00,36.0,32.2,29.99,SW,232,11.0,13.0,86,0.00,,SCT,0.02,VWS V14.01,2013-03-08 05:47:00,
2013-03-07 21:52:00,36.1,32.6,29.99,WSW,244,10.0,15.0,87,0.00,,SCT,0.02,VWS V14.01,2013-03-08 05:52:00,
2013-03-07 21:57:00,36.2,32.7,29.99,SW,219,12.0,17.0,87,0.00,,SCT,0.02,VWS V14.01,2013-03-08 05:57:00,
2013-03-07 22:02:00,36.5,33.0,29.98,SW,232,10.0,18.0,87,0.00,,SCT,0.02,VWS V14.01,2013-03-08 06:02:00,
2013-03-07 22:07:00,36.6,33.1,29.98,SW,227,10.0,18.0,87,0.00,,SCT,0.02,VWS V14.01,2013-03-08 06:07:00,
2013-03-07 22:12:00,36.8,33.3,29.98,SW,236,11.0,18.0,87,0.00,,SCT,0.02,VWS V14.01,2013-03-08 06:12:00,
2013-03-07 22:17:00,37.0,33.5,29.98,WSW,237,15.0,17.0,87,0.00,,SCT,0.02,VWS V14.01,2013-03-08 06:17:00,
2013-03-07 22:22:00,37.4,33.9,29.98,WSW,240,8.0,17.0,87,0.00,,SCT,0.02,VWS V14.01,2013-03-08 06:22:00,
2013-03-07 22:27:00,37.9,34.4,29.97,SSW,212,9.0,17.0,87,0.00,,SCT,0.02,VWS V14.01,2013-03-08 06:27:00,
2013-03-07 22:32:00,38.3,34.8,29.97,SW,216,9.0,18.0,87,0.00,,SCT,0.02,VWS V14.01,2013-03-08 06:32:00,
2013-03-07 22:37:00,38.6,34.5,29.96,SW,227,15.0,18.0,85,0.00,,SCT,0.02,VWS V14.01,2013-03-08 06:37:00,
2013-03-07 22:42:00,38.9,34.5,29.97,SW,219,8.0,18.0,84,0.00,,SCT,0.02,VWS V14.01,2013-03-08 06:42:00,
2013-03-07 22:47:00,39.0,34.3,29.96,WSW,238,7.0,13.0,83,0.00,,SCT,0.02,VWS V14.01,2013-03-08 06:47:00,
2013-03-07 22:52:00,38.9,34.5,29.96,West,260,7.0,13.0,84,0.00,,SCT,0.02,VWS V14.01,2013-03-08 06:52:00,
2013-03-07 22:57:00,38.8,34.4,29.96,WSW,254,10.0,13.0,84,0.00,,SCT,0.02,VWS V14.01,2013-03-08 06:57:00,
2013-03-07 23:02:00,38.7,34.6,29.96,WSW,249,7.0,13.0,85,0.00,,SCT,0.02,VWS V14.01,2013-03-08 07:02:00,
2013-03-07 23:07:00,38.6,34.5,29.96,West,264,8.0,13.0,85,0.00,,SCT,0.02,VWS V14.01,2013-03-08 07:07:00,
2013-03-07 23:12:00,38.5,34.4,29.96,SW,224,10.0,18.0,85,0.00,,SCT,0.02,VWS V14.01,2013-03-08 07:12:00,
2013-03-07 23:17:00,38.6,34.5,29.97,SW,230,10.0,16.0,85,0.00,,SCT,0.02,VWS V14.01,2013-03-08 07:17:00,
2013-03-07 23:22:00,38.7,34.9,29.96,WSW,246,11.0,17.0,86,0.00,,SCT,0.02,VWS V14.01,2013-03-08 07:22:00,
2013-03-07 23:27:00,38.8,35.0,29.96,SW,234,8.0,19.0,86,0.00,,SCT,0.02,VWS V14.01,2013-03-08 07:27:00,
2013-03-07 23:32:00,38.7,35.2,29.96,SW,225,12.0,13.0,87,0.00,,SCT,0.02,VWS V14.01,2013-03-08 07:32:00,
2013-03-07 23:37:00,38.6,35.1,29.95,SW,231,13.0,21.0,87,0.00,,SCT,0.02,VWS V14.01,2013-03-08 07:37:00,
2013-03-07 23:42:00,38.4,34.9,29.95,WSW,244,12.0,21.0,87,0.00,,SCT,0.02,VWS V14.01,2013-03-08 07:42:00,
2013-03-07 23:47:00,38.3,34.8,29.94,WSW,254,13.0,15.0,87,0.00,,SCT,0.02,VWS V14.01,2013-03-08 07:47:00,
2013-03-07 23:52:00,38.3,35.1,29.95,WSW,240,13.0,18.0,88,0.00,,SCT,0.02,VWS V14.01,2013-03-08 07:52:00,
2013-03-07 23:57:00,38.3,35.1,29.95,SW,223,9.0,18.0,88,0.01,,SCT,0.03,VWS V14.01,2013-03-08 07:57:00,